Time;durP1;ratioP1;P1;durP2;ratioP2;P2;SDS_P1;SDS_P2;PMS_P1;PMS_P2;Temp;Humidity;BMP_temperature;BMP_pressure;BME280_temperature;BME280_humidity;BME280_pressure;Samples;Min_cycle;Max_cycle;Signal;HPM_P1;HPM_P2
2021/04/07 00:00:28;;;;;;;4.65;3.28;;;77.60;2227.20;;;;;;5070688;28;20086;-73
2021/04/07 00:02:54;;;;;;;2.90;2.58;;;77.60;2201.60;;;;;;5070488;28;20024;-73
2021/04/07 00:05:22;;;;;;;6.03;3.58;;;77.50;2227.20;;;;;;5070390;28;20059;-73
2021/04/07 00:07:50;;;;;;;5.78;4.25;;;77.30;2227.20;;;;;;5070623;28;20040;-74
2021/04/07 00:10:19;;;;;;;8.40;5.00;;;77.30;2227.20;;;;;;5070514;28;20013;-74
2021/04/07 00:12:44;;;;;;;4.40;2.97;;;77.50;2227.20;;;;;;5069163;28;20028;-74
2021/04/07 00:15:11;;;;;;;4.07;2.58;;;77.50;2227.20;;;;;;5070125;28;20047;-74
2021/04/07 00:17:36;;;;;;;4.07;2.55;;;77.50;2227.20;;;;;;5070486;28;20471;-74
2021/04/07 00:20:06;;;;;;;3.65;2.80;;;77.30;2227.20;;;;;;5070063;28;20053;-74
2021/04/07 00:22:32;;;;;;;3.78;2.92;;;77.40;2227.20;;;;;;5070124;28;20074;-73
2021/04/07 00:24:58;;;;;;;3.03;2.70;;;77.50;2227.20;;;;;;5072493;28;20029;-74
2021/04/07 00:27:28;;;;;;;3.70;3.00;;;77.40;2227.20;;;;;;5074469;28;20104;-74
2021/04/07 00:29:53;;;;;;;5.57;4.00;;;77.40;2227.20;;;;;;5074343;28;20025;-74
2021/04/07 00:32:19;;;;;;;5.80;3.72;;;77.50;2201.60;;;;;;5073981;28;20021;-74
2021/04/07 00:34:45;;;;;;;6.32;3.60;;;77.50;2227.20;;;;;;5074187;28;20082;-73
2021/04/07 00:37:11;;;;;;;5.70;3.38;;;77.60;2201.60;;;;;;5073895;28;20017;-74
2021/04/07 00:39:37;;;;;;;4.10;3.13;;;77.60;2201.60;;;;;;5074150;28;20099;-74
2021/04/07 00:42:07;;;;;;;4.80;2.90;;;77.60;2201.60;;;;;;5073918;28;20017;-73
2021/04/07 00:44:32;;;;;;;3.85;2.97;;;77.70;2201.60;;;;;;5073980;28;20033;-73
2021/04/07 00:46:59;;;;;;;5.78;3.42;;;77.60;2201.60;;;;;;5073807;28;20027;-74
2021/04/07 00:49:25;;;;;;;4.85;3.10;;;77.70;2176.00;;;;;;5073973;28;20081;-73
2021/04/07 00:51:52;;;;;;;5.35;3.30;;;77.70;2176.00;;;;;;5073570;28;20016;-74
2021/04/07 00:54:18;;;;;;;6.50;4.40;;;77.60;2201.60;;;;;;5073723;28;20039;-73
2021/04/07 00:56:45;;;;;;;6.90;4.18;;;77.60;2201.60;;;;;;5073860;28;20028;-73
2021/04/07 00:59:14;;;;;;;6.82;4.13;;;77.60;2201.60;;;;;;5073562;28;20495;-74
2021/04/07 01:01:40;;;;;;;6.95;3.80;;;77.60;2201.60;;;;;;5072194;28;20043;-73
2021/04/07 01:04:08;;;;;;;5.20;3.53;;;77.70;2201.60;;;;;;5073706;28;20028;-74
2021/04/07 01:06:36;;;;;;;6.22;3.47;;;77.60;2201.60;;;;;;5073677;28;20105;-74
2021/04/07 01:09:02;;;;;;;5.82;3.92;;;77.50;2201.60;;;;;;5073225;28;20025;-74
2021/04/07 01:11:28;;;;;;;6.10;3.70;;;77.60;2227.20;;;;;;5073417;28;20048;-74
2021/04/07 01:13:54;;;;;;;5.75;3.17;;;77.40;2227.20;;;;;;5073482;28;20487;-74
2021/04/07 01:16:20;;;;;;;5.00;3.80;;;77.40;2227.20;;;;;;5073263;28;20028;-74
2021/04/07 01:18:46;;;;;;;5.85;4.05;;;77.50;2227.20;;;;;;5073224;28;20012;-74
2021/04/07 01:21:12;;;;;;;4.40;3.40;;;77.50;2227.20;;;;;;5073154;28;20128;-74
2021/04/07 01:23:46;;;;;;;6.15;4.13;;;77.60;2227.20;;;;;;5073422;28;20025;-73
2021/04/07 01:26:12;;;;;;;6.55;4.70;;;77.30;2227.20;;;;;;5073024;28;20029;-73
2021/04/07 01:28:39;;;;;;;5.07;4.10;;;77.40;2227.20;;;;;;5073078;28;20028;-73
2021/04/07 01:31:05;;;;;;;6.18;4.43;;;77.30;2227.20;;;;;;5073216;28;20020;-73
2021/04/07 01:33:31;;;;;;;5.88;4.70;;;77.20;2227.20;;;;;;5072890;28;20043;-73
2021/04/07 01:35:57;;;;;;;7.82;5.28;;;77.20;2227.20;;;;;;5072654;28;20410;-73
2021/04/07 01:38:23;;;;;;;5.43;4.30;;;77.30;2227.20;;;;;;5072791;28;20053;-73
2021/04/07 01:40:50;;;;;;;6.43;4.72;;;77.20;2227.20;;;;;;5072879;28;20032;-74
2021/04/07 01:43:18;;;;;;;5.68;5.07;;;77.20;2227.20;;;;;;5073157;28;20028;-73
2021/04/07 01:45:48;;;;;;;6.68;5.20;;;77.20;2227.20;;;;;;5072971;28;20052;-73
2021/04/07 01:48:16;;;;;;;7.07;4.93;;;77.10;2227.20;;;;;;5072904;28;20050;-74
2021/04/07 01:50:42;;;;;;;6.35;5.10;;;77.20;2227.20;;;;;;5072737;28;20028;-74
2021/04/07 01:53:13;;;;;;;6.70;5.40;;;77.10;2227.20;;;;;;5071126;28;20055;-73
2021/04/07 01:55:39;;;;;;;6.15;5.22;;;76.90;2227.20;;;;;;5072641;28;20137;-75
2021/04/07 01:58:06;;;;;;;6.60;4.90;;;77.00;2227.20;;;;;;5072623;28;20108;-74
2021/04/07 02:00:31;;;;;;;5.63;4.97;;;77.00;2227.20;;;;;;5072274;28;20497;-74
2021/04/07 02:02:59;;;;;;;6.30;4.28;;;77.10;2227.20;;;;;;5072576;28;20037;-74
2021/04/07 02:05:25;;;;;;;4.72;3.78;;;77.20;2227.20;;;;;;5072489;28;20069;-74
2021/04/07 02:07:51;;;;;;;5.15;4.40;;;77.20;2227.20;;;;;;5072383;28;20504;-74
2021/04/07 02:10:16;;;;;;;4.13;3.72;;;77.10;2227.20;;;;;;5072742;28;20078;-74
2021/04/07 02:12:42;;;;;;;4.30;3.90;;;77.00;2227.20;;;;;;5072037;28;20356;-74
2021/04/07 02:15:17;;;;;;;3.97;3.40;;;77.10;2227.20;;;;;;5072328;28;20036;-74
2021/04/07 02:17:45;;;;;;;4.45;3.90;;;77.10;2227.20;;;;;;5072372;28;20048;-73
2021/04/07 02:20:11;;;;;;;4.80;4.00;;;77.00;2227.20;;;;;;5071861;28;20494;-75
2021/04/07 02:22:37;;;;;;;3.97;3.53;;;77.10;2227.20;;;;;;5073010;28;20029;-74
2021/04/07 02:25:06;;;;;;;4.68;4.00;;;77.10;2227.20;;;;;;5072982;28;20538;-74
2021/04/07 02:27:32;;;;;;;5.50;4.25;;;77.10;2227.20;;;;;;5072846;28;20021;-74
2021/04/07 02:29:58;;;;;;;6.57;5.20;;;76.90;2227.20;;;;;;5073046;28;20029;-76
2021/04/07 02:32:25;;;;;;;5.22;4.03;;;76.90;2227.20;;;;;;5073024;28;20020;-74
2021/04/07 02:34:52;;;;;;;4.13;3.67;;;77.10;2227.20;;;;;;5072984;28;20036;-73
2021/04/07 02:37:18;;;;;;;3.80;3.38;;;77.10;2227.20;;;;;;5072492;28;20414;-75
2021/04/07 02:39:48;;;;;;;4.38;3.97;;;76.90;2227.20;;;;;;5072911;28;20516;-74
2021/04/07 02:42:15;;;;;;;5.22;4.05;;;77.10;2227.20;;;;;;5072019;28;20078;-73
2021/04/07 02:44:41;;;;;;;4.93;4.03;;;77.20;2227.20;;;;;;5071708;28;20027;-73
2021/04/07 02:47:10;;;;;;;7.13;4.75;;;77.30;2227.20;;;;;;5071050;28;20386;-74
2021/04/07 02:49:36;;;;;;;6.15;4.53;;;77.30;2227.20;;;;;;5071778;28;20048;-73
2021/04/07 02:52:03;;;;;;;5.13;4.63;;;77.40;2227.20;;;;;;5071511;28;20020;-73
2021/04/07 02:54:29;;;;;;;4.60;4.05;;;77.40;2227.20;;;;;;5071319;28;20533;-73
2021/04/07 02:56:55;;;;;;;5.07;4.57;;;77.40;2227.20;;;;;;5071624;28;20028;-73
2021/04/07 02:59:21;;;;;;;4.32;3.92;;;77.30;2227.20;;;;;;5071328;28;20021;-73
2021/04/07 03:01:47;;;;;;;4.90;4.18;;;77.40;2227.20;;;;;;5071530;28;20111;-73
2021/04/07 03:04:14;;;;;;;4.70;4.25;;;77.30;2227.20;;;;;;5071435;28;20097;-73
2021/04/07 03:06:40;;;;;;;5.22;4.45;;;77.40;2227.20;;;;;;5071126;28;20024;-74
2021/04/07 03:09:06;;;;;;;4.20;3.80;;;77.40;2227.20;;;;;;5071264;28;20051;-74
2021/04/07 03:11:34;;;;;;;6.28;4.50;;;77.50;2201.60;;;;;;5071086;28;20344;-74
2021/04/07 03:14:00;;;;;;;6.00;5.18;;;77.40;2227.20;;;;;;5070826;28;20075;-74
2021/04/07 03:16:25;;;;;;;6.70;4.32;;;77.20;2227.20;;;;;;5071400;28;20033;-74
2021/04/07 03:18:51;;;;;;;7.55;5.30;;;77.30;2227.20;;;;;;5070686;28;20044;-72
2021/04/07 03:21:17;;;;;;;9.02;6.03;;;77.40;2227.20;;;;;;5071011;28;20029;-73
2021/04/07 03:23:42;;;;;;;11.20;6.97;;;77.70;2201.60;;;;;;5070747;28;20036;-73
2021/04/07 03:26:08;;;;;;;10.38;6.65;;;77.20;2227.20;;;;;;5070729;28;20069;-73
2021/04/07 03:28:34;;;;;;;10.45;6.82;;;77.30;2227.20;;;;;;5071039;28;20020;-73
2021/04/07 03:31:00;;;;;;;9.88;6.28;;;77.20;2227.20;;;;;;5070771;28;20017;-72
2021/04/07 03:33:28;;;;;;;10.30;6.57;;;77.20;2227.20;;;;;;5070883;28;20024;-73
2021/04/07 03:35:54;;;;;;;10.90;7.00;;;76.90;2227.20;;;;;;5070954;28;20066;-72
2021/04/07 03:38:20;;;;;;;9.18;6.32;;;76.90;2227.20;;;;;;5070505;28;20020;-74
2021/04/07 03:40:47;;;;;;;8.57;6.38;;;77.00;2227.20;;;;;;5070860;28;20028;-72
2021/04/07 03:43:15;;;;;;;8.15;6.25;;;77.00;2227.20;;;;;;5070569;28;20463;-73
2021/04/07 03:45:42;;;;;;;8.52;7.03;;;76.90;2227.20;;;;;;5070575;28;20033;-74
2021/04/07 03:48:10;;;;;;;9.27;6.82;;;76.90;2227.20;;;;;;5070691;28;20577;-73
2021/04/07 03:50:37;;;;;;;9.75;6.80;;;77.00;2227.20;;;;;;5070598;28;20470;-73
2021/04/07 03:53:03;;;;;;;7.18;6.47;;;77.00;2227.20;;;;;;5070451;28;20423;-72
2021/04/07 03:55:29;;;;;;;8.13;6.55;;;77.00;2227.20;;;;;;5070366;28;20378;-74
2021/04/07 03:57:55;;;;;;;7.60;6.38;;;77.20;2227.20;;;;;;5070461;28;20025;-75
2021/04/07 04:00:21;;;;;;;6.85;6.10;;;77.00;2227.20;;;;;;5070311;28;20046;-73
2021/04/07 04:02:47;;;;;;;6.45;5.60;;;77.00;2227.20;;;;;;5070523;28;20411;-72
2021/04/07 04:05:13;;;;;;;6.57;5.88;;;77.10;2227.20;;;;;;5070262;28;20051;-73
2021/04/07 04:07:38;;;;;;;12.07;7.35;;;77.00;2227.20;;;;;;5070108;28;20032;-74
2021/04/07 04:10:05;;;;;;;7.60;5.57;;;77.20;2227.20;;;;;;5070266;28;20426;-73
2021/04/07 04:12:31;;;;;;;7.03;5.45;;;77.20;2227.20;;;;;;5070153;28;20020;-73
2021/04/07 04:14:56;;;;;;;9.38;5.80;;;77.00;2227.20;;;;;;5070295;28;20158;-74
2021/04/07 04:17:22;;;;;;;9.43;5.68;;;77.00;2227.20;;;;;;5070124;28;20021;-74
2021/04/07 04:19:49;;;;;;;7.85;5.90;;;77.20;2227.20;;;;;;5070263;28;20052;-74
2021/04/07 04:22:16;;;;;;;7.00;5.20;;;77.00;2227.20;;;;;;5070287;28;20348;-73
2021/04/07 04:24:42;;;;;;;7.80;5.88;;;76.90;2227.20;;;;;;5070144;28;20082;-72
2021/04/07 04:27:09;;;;;;;9.30;5.90;;;76.90;2227.20;;;;;;5070363;28;20506;-73
2021/04/07 04:29:36;;;;;;;8.70;6.32;;;76.90;2227.20;;;;;;5070235;28;20017;-73
2021/04/07 04:32:02;;;;;;;7.07;5.82;;;77.00;2227.20;;;;;;5069901;28;20020;-73
2021/04/07 04:34:28;;;;;;;9.57;6.05;;;76.90;2227.20;;;;;;5070022;28;20479;-73
2021/04/07 04:36:53;;;;;;;8.88;6.53;;;77.00;2227.20;;;;;;5068862;28;20074;-73
2021/04/07 04:39:19;;;;;;;8.20;6.30;;;76.90;2227.20;;;;;;5069967;28;20382;-73
2021/04/07 04:41:45;;;;;;;8.52;6.47;;;76.90;2227.20;;;;;;5070156;28;20024;-73
2021/04/07 04:44:11;;;;;;;10.57;6.85;;;76.80;2227.20;;;;;;5069945;28;20028;-73
2021/04/07 04:46:36;;;;;;;11.30;6.93;;;76.80;2227.20;;;;;;5070052;28;20073;-73
2021/04/07 04:49:02;;;;;;;9.88;6.57;;;76.80;2227.20;;;;;;5069816;28;20031;-73
2021/04/07 04:51:28;;;;;;;8.52;6.18;;;76.90;2227.20;;;;;;5068394;28;20017;-74
2021/04/07 04:53:54;;;;;;;9.70;6.90;;;77.00;2227.20;;;;;;5070044;28;20040;-74
2021/04/07 04:56:20;;;;;;;13.60;7.72;;;76.90;2227.20;;;;;;5069880;28;20024;-73
2021/04/07 04:58:46;;;;;;;10.13;6.88;;;77.00;2227.20;;;;;;5070039;28;20025;-74
2021/04/07 05:01:11;;;;;;;12.93;8.60;;;76.90;2227.20;;;;;;5069742;28;20072;-74
2021/04/07 05:03:37;;;;;;;10.32;7.00;;;76.90;2227.20;;;;;;5069951;28;20070;-74
2021/04/07 05:06:03;;;;;;;10.52;6.97;;;77.10;2227.20;;;;;;5069813;28;20039;-74
2021/04/07 05:08:29;;;;;;;11.05;7.57;;;77.10;2201.60;;;;;;5069647;28;20021;-74
2021/04/07 05:10:55;;;;;;;11.57;8.20;;;77.20;2201.60;;;;;;5071808;28;20025;-74
2021/04/07 05:13:20;;;;;;;10.85;8.07;;;77.00;2227.20;;;;;;5072035;28;20021;-74
2021/04/07 05:15:46;;;;;;;13.40;8.88;;;77.00;2227.20;;;;;;5073465;28;20098;-73
2021/04/07 05:18:13;;;;;;;12.25;7.95;;;77.00;2227.20;;;;;;5073212;28;20023;-73
2021/04/07 05:20:40;;;;;;;16.15;10.57;;;76.90;2227.20;;;;;;5073116;28;20040;-73
2021/04/07 05:23:06;;;;;;;13.38;8.68;;;77.00;2227.20;;;;;;5073280;28;20021;-73
2021/04/07 05:25:32;;;;;;;12.38;8.60;;;77.00;2227.20;;;;;;5073393;28;20352;-73
2021/04/07 05:28:00;;;;;;;13.23;8.40;;;76.90;2227.20;;;;;;5073383;28;20033;-73
2021/04/07 05:30:26;;;;;;;17.13;9.95;;;77.00;2227.20;;;;;;5073283;28;20024;-73
2021/04/07 05:32:52;;;;;;;15.73;10.45;;;77.10;2227.20;;;;;;5073055;28;20409;-74
2021/04/07 05:35:18;;;;;;;15.23;9.65;;;77.10;2227.20;;;;;;5073080;28;20047;-74
2021/04/07 05:37:43;;;;;;;14.90;8.80;;;77.10;2227.20;;;;;;5073045;28;20024;-73
2021/04/07 05:40:09;;;;;;;15.43;10.15;;;76.90;2227.20;;;;;;5071489;28;20033;-74
2021/04/07 05:42:35;;;;;;;16.10;9.60;;;77.10;2227.20;;;;;;5073085;28;20032;-73
2021/04/07 05:45:01;;;;;;;14.55;8.63;;;77.20;2227.20;;;;;;5072907;28;20483;-73
2021/04/07 05:47:26;;;;;;;15.70;10.20;;;77.20;2227.20;;;;;;5073000;28;20028;-73
2021/04/07 05:49:52;;;;;;;14.95;10.10;;;77.10;2227.20;;;;;;5072660;28;20063;-73
2021/04/07 05:52:18;;;;;;;14.43;9.68;;;77.10;2227.20;;;;;;5072794;28;20021;-73
2021/04/07 05:54:43;;;;;;;15.05;9.32;;;77.10;2227.20;;;;;;5071401;28;20075;-73
2021/04/07 05:57:09;;;;;;;16.08;9.93;;;77.10;2227.20;;;;;;5072500;28;20116;-73
2021/04/07 05:59:35;;;;;;;15.07;9.20;;;77.30;2227.20;;;;;;5072686;28;20467;-72
2021/04/07 06:02:01;;;;;;;15.65;9.98;;;77.20;2227.20;;;;;;5072490;28;20059;-73
2021/04/07 06:04:26;;;;;;;16.23;10.77;;;77.20;2227.20;;;;;;5072928;28;20406;-73
2021/04/07 06:06:52;;;;;;;16.05;10.45;;;77.30;2227.20;;;;;;5072348;28;20027;-73
2021/04/07 06:09:18;;;;;;;14.35;10.27;;;77.10;2227.20;;;;;;5072408;28;20051;-73
2021/04/07 06:11:43;;;;;;;17.00;11.02;;;77.20;2227.20;;;;;;5072400;28;20021;-72
2021/04/07 06:14:09;;;;;;;13.95;9.15;;;77.20;2227.20;;;;;;5072205;28;20120;-73
2021/04/07 06:16:35;;;;;;;15.55;10.13;;;77.20;2227.20;;;;;;5072505;28;20021;-72
2021/04/07 06:19:00;;;;;;;17.35;10.80;;;77.30;2227.20;;;;;;5072022;28;20596;-72
2021/04/07 06:21:26;;;;;;;16.00;11.43;;;77.50;2227.20;;;;;;5071344;28;20024;-72
2021/04/07 06:23:52;;;;;;;14.35;9.98;;;77.50;2227.20;;;;;;5071651;28;20073;-72
2021/04/07 06:26:18;;;;;;;13.05;9.13;;;77.50;2227.20;;;;;;5072159;28;20043;-73
2021/04/07 06:28:43;;;;;;;14.95;10.10;;;77.50;2201.60;;;;;;5071604;28;20029;-72
2021/04/07 06:31:09;;;;;;;13.48;9.32;;;77.40;2227.20;;;;;;5071831;28;20074;-72
2021/04/07 06:33:37;;;;;;;17.90;10.85;;;77.30;2227.20;;;;;;5071982;28;20036;-72
2021/04/07 06:36:07;;;;;;;11.45;9.50;;;77.50;2227.20;;;;;;5070444;28;20058;-73
2021/04/07 06:38:35;;;;;;;14.18;10.32;;;77.50;2201.60;;;;;;5072139;28;20021;-73
2021/04/07 06:41:02;;;;;;;17.60;11.75;;;77.50;2227.20;;;;;;5071861;28;20028;-72
2021/04/07 06:43:31;;;;;;;27.60;16.98;;;77.40;2227.20;;;;;;5071696;28;20029;-74
2021/04/07 06:45:57;;;;;;;21.67;13.05;;;77.50;2227.20;;;;;;5072061;28;20119;-73
2021/04/07 06:48:24;;;;;;;25.33;14.18;;;77.60;2227.20;;;;;;5072016;28;20099;-75
2021/04/07 06:50:52;;;;;;;20.20;13.88;;;77.70;2227.20;;;;;;5071622;28;20028;-74
2021/04/07 06:53:21;;;;;;;22.55;14.65;;;77.60;2201.60;;;;;;5070559;28;20411;-74
2021/04/07 06:55:48;;;;;;;18.27;12.57;;;77.50;2201.60;;;;;;5071687;28;20017;-73
2021/04/07 06:58:14;;;;;;;13.65;10.98;;;77.50;2227.20;;;;;;5071757;28;20096;-74
2021/04/07 07:00:41;;;;;;;17.35;11.95;;;77.40;2227.20;;;;;;5071484;28;20049;-74
2021/04/07 07:03:08;;;;;;;13.98;10.55;;;77.60;2227.20;;;;;;5071713;28;20032;-73
2021/04/07 07:05:37;;;;;;;17.48;12.00;;;77.30;2227.20;;;;;;5071566;28;20081;-75
2021/04/07 07:08:06;;;;;;;17.42;12.30;;;77.50;2227.20;;;;;;5069977;28;20016;-74
2021/04/07 07:10:46;;;;;;;17.65;12.50;;;77.50;2227.20;;;;;;5071142;28;20455;-75
2021/04/07 07:13:19;;;;;;;16.60;11.80;;;77.40;2227.20;;;;;;5070985;28;20025;-73
2021/04/07 07:15:46;;;;;;;22.33;14.60;;;77.40;2201.60;;;;;;5071383;28;20037;-73
2021/04/07 07:18:22;;;;;;;28.75;18.02;;;77.40;2227.20;;;;;;5071053;28;20099;-72
2021/04/07 07:20:48;;;;;;;18.02;12.43;;;77.50;2227.20;;;;;;5070984;28;20053;-73
2021/04/07 07:23:25;;;;;;;18.90;12.70;;;77.50;2201.60;;;;;;5071114;28;20026;-73
2021/04/07 07:26:05;;;;;;;18.95;11.82;;;77.50;2201.60;;;;;;5070940;28;20039;-73
2021/04/07 07:28:44;;;;;;;17.63;12.70;;;77.60;2227.20;;;;;;5070840;28;20016;-74
2021/04/07 07:31:21;;;;;;;16.92;10.80;;;102.40;2201.60;;;;;;5070707;28;20024;-75
2021/04/07 07:33:47;;;;;;;16.90;11.48;;;102.50;2201.60;;;;;;5069446;28;20390;-73
2021/04/07 07:36:13;;;;;;;17.70;11.75;;;102.50;2201.60;;;;;;5070471;28;20028;-73
2021/04/07 07:38:47;;;;;;;13.60;10.60;;;102.60;2176.00;;;;;;5070861;28;20056;-72
2021/04/07 07:41:14;;;;;;;16.67;11.35;;;77.70;2176.00;;;;;;5070979;28;20028;-71
2021/04/07 07:43:41;;;;;;;15.27;11.18;;;102.40;2176.00;;;;;;5070552;28;20028;-73
2021/04/07 07:46:13;;;;;;;17.30;12.10;;;77.70;2176.00;;;;;;5069687;28;20364;-73
2021/04/07 07:48:40;;;;;;;14.25;11.07;;;77.50;2201.60;;;;;;5070766;28;20028;-72
2021/04/07 07:51:21;;;;;;;18.35;13.02;;;102.40;2201.60;;;;;;5070879;28;20025;-73
2021/04/07 07:53:49;;;;;;;19.02;12.30;;;102.50;2176.00;;;;;;5070844;28;20035;-73
2021/04/07 07:56:16;;;;;;;19.23;12.60;;;102.90;2150.40;;;;;;5070911;28;20107;-71
2021/04/07 07:58:43;;;;;;;20.52;12.98;;;102.40;2176.00;;;;;;5070651;28;20573;-75
2021/04/07 08:01:10;;;;;;;17.83;12.80;;;77.70;2176.00;;;;;;5070476;28;20074;-72
2021/04/07 08:03:37;;;;;;;16.70;12.02;;;102.50;2201.60;;;;;;5070693;28;20025;-72
2021/04/07 08:06:02;;;;;;;17.85;12.57;;;102.40;2201.60;;;;;;5070554;28;20455;-70
2021/04/07 08:08:28;;;;;;;20.70;13.18;;;102.60;2201.60;;;;;;5070370;28;20028;-72
2021/04/07 08:10:55;;;;;;;24.80;15.13;;;102.70;2201.60;;;;;;5070616;28;20020;-72
2021/04/07 08:13:21;;;;;;;22.27;14.30;;;102.80;2201.60;;;;;;5068654;28;20033;-72
2021/04/07 08:15:48;;;;;;;18.45;12.57;;;102.90;2176.00;;;;;;5070206;28;20036;-72
2021/04/07 08:18:15;;;;;;;19.27;13.45;;;103.00;2150.40;;;;;;5070243;28;20021;-72
2021/04/07 08:20:41;;;;;;;20.95;13.93;;;103.10;2124.80;;;;;;5069925;28;20558;-71
2021/04/07 08:23:09;;;;;;;18.50;12.93;;;103.20;2150.40;;;;;;5070216;28;20016;-71
2021/04/07 08:25:36;;;;;;;21.33;13.93;;;103.00;2124.80;;;;;;5070216;28;20171;-71
2021/04/07 08:28:03;;;;;;;18.23;11.75;;;103.10;2124.80;;;;;;5069797;28;20033;-74
2021/04/07 08:30:30;;;;;;;16.90;12.93;;;103.30;2124.80;;;;;;5069927;28;20024;-71
2021/04/07 08:32:58;;;;;;;16.05;11.75;;;103.10;2124.80;;;;;;5070112;28;20096;-71
2021/04/07 08:35:25;;;;;;;14.80;11.25;;;103.10;2124.80;;;;;;5070070;28;20442;-71
2021/04/07 08:38:04;;;;;;;24.40;15.43;;;103.20;2099.20;;;;;;5069752;28;20028;-72
2021/04/07 08:41:06;;;;;;;23.00;14.07;;;128.00;2150.40;;;;;;5069781;28;20025;-71
2021/04/07 08:43:33;;;;;;;20.13;13.98;;;128.20;2124.80;;;;;;5069972;28;20024;-74
2021/04/07 08:46:16;;;;;;;32.45;24.05;;;128.20;2124.80;;;;;;5072117;28;20029;-73
2021/04/07 08:48:42;;;;;;;17.98;12.65;;;128.10;2124.80;;;;;;5073857;28;20013;-72
2021/04/07 08:51:10;;;;;;;15.85;11.85;;;128.10;2099.20;;;;;;5073965;28;20551;-73
2021/04/07 08:53:43;;;;;;;17.40;12.60;;;128.10;2099.20;;;;;;5073994;28;20054;-74
2021/04/07 08:56:13;;;;;;;19.88;13.73;;;128.10;2124.80;;;;;;5073696;28;20025;-73
2021/04/07 08:58:57;;;;;;;19.00;13.03;;;128.40;2124.80;;;;;;5073615;28;20034;-74
2021/04/07 09:01:29;;;;;;;20.85;12.93;;;128.30;2073.60;;;;;;5073505;28;20785;-72
2021/04/07 09:04:03;;;;;;;17.17;12.48;;;128.20;2099.20;;;;;;5073763;28;20024;-73
2021/04/07 09:06:28;;;;;;;19.63;12.00;;;128.30;2073.60;;;;;;5073486;28;20021;-73
2021/04/07 09:08:55;;;;;;;18.92;13.57;;;128.50;2073.60;;;;;;5073584;28;20475;-72
2021/04/07 09:11:30;;;;;;;18.50;12.93;;;128.50;2073.60;;;;;;5073438;28;20032;-72
2021/04/07 09:14:04;;;;;;;17.33;11.57;;;128.60;2073.60;;;;;;5073613;28;20040;-72
2021/04/07 09:16:35;;;;;;;15.13;11.75;;;128.80;2073.60;;;;;;5073320;28;20024;-73
2021/04/07 09:19:16;;;;;;;17.55;13.25;;;128.70;2022.40;;;;;;5073066;28;20085;-71
2021/04/07 09:21:57;;;;;;;18.88;14.35;;;128.90;2022.40;;;;;;5073433;28;20034;-73
2021/04/07 09:24:26;;;;;;;15.05;11.98;;;128.80;2048.00;;;;;;5073243;28;20024;-72
2021/04/07 09:26:53;;;;;;;24.83;15.90;;;153.60;1971.20;;;;;;5073109;28;20510;-73
2021/04/07 09:29:19;;;;;;;17.70;12.43;;;153.60;1996.80;;;;;;5073048;28;20087;-73
2021/04/07 09:31:45;;;;;;;23.83;16.52;;;153.70;2022.40;;;;;;5073199;28;20060;-72
2021/04/07 09:34:14;;;;;;;22.00;15.32;;;153.90;2022.40;;;;;;5072806;28;20032;-73
2021/04/07 09:36:42;;;;;;;22.08;15.15;;;154.00;2022.40;;;;;;5072990;28;20049;-71
2021/04/07 09:39:10;;;;;;;15.00;10.82;;;154.20;1996.80;;;;;;5071585;28;20029;-73
2021/04/07 09:41:40;;;;;;;20.48;13.23;;;154.10;1920.00;;;;;;5073049;28;20027;-72
2021/04/07 09:44:07;;;;;;;18.55;12.07;;;154.10;1945.60;;;;;;5073098;28;20104;-72
2021/04/07 09:46:33;;;;;;;17.00;11.98;;;154.20;1971.20;;;;;;5072729;28;20029;-73
2021/04/07 09:49:03;;;;;;;18.65;13.48;;;154.10;1945.60;;;;;;5072722;28;20025;-74
2021/04/07 09:51:32;;;;;;;15.38;11.20;;;154.10;1971.20;;;;;;5072638;28;20027;-74
2021/04/07 09:54:20;;;;;;;14.52;11.55;;;154.30;1945.60;;;;;;5072708;28;20025;-74
2021/04/07 09:56:58;;;;;;;17.77;13.05;;;154.50;1945.60;;;;;;5072590;28;20033;-73
2021/04/07 09:59:32;;;;;;;12.90;9.88;;;179.20;1945.60;;;;;;5072729;28;20024;-74
2021/04/07 10:01:58;;;;;;;14.48;10.70;;;179.20;1868.80;;;;;;5073068;28;20025;-73
2021/04/07 10:04:44;;;;;;;17.25;12.13;;;179.20;1894.40;;;;;;5072559;28;20021;-74
2021/04/07 10:07:10;;;;;;;14.52;11.35;;;179.20;1894.40;;;;;;5072462;28;20033;-74
2021/04/07 10:09:37;;;;;;;14.75;11.50;;;179.20;1920.00;;;;;;5072427;28;20110;-74
2021/04/07 10:12:03;;;;;;;19.83;13.63;;;179.20;1894.40;;;;;;5072250;28;20028;-74
2021/04/07 10:14:29;;;;;;;14.15;11.27;;;179.30;1894.40;;;;;;5071997;28;20041;-73
2021/04/07 10:16:54;;;;;;;20.92;13.05;;;179.20;1843.20;;;;;;5072337;28;20047;-72
2021/04/07 10:19:27;;;;;;;16.75;11.70;;;154.50;1868.80;;;;;;5071957;28;20169;-73
2021/04/07 10:22:00;;;;;;;16.88;12.00;;;179.30;1868.80;;;;;;5071963;28;20090;-73
2021/04/07 10:24:26;;;;;;;15.85;10.35;;;179.50;1843.20;;;;;;5072396;28;20024;-72
2021/04/07 10:26:52;;;;;;;15.23;10.15;;;179.40;1766.40;;;;;;5071973;28;20020;-74
2021/04/07 10:29:25;;;;;;;12.18;9.38;;;179.40;1766.40;;;;;;5072043;28;20078;-73
2021/04/07 10:31:56;;;;;;;13.25;10.25;;;179.30;1792.00;;;;;;5071804;28;20020;-74
2021/04/07 10:34:35;;;;;;;12.55;9.68;;;179.40;1792.00;;;;;;5071725;28;20498;-74
2021/04/07 10:37:02;;;;;;;14.05;10.23;;;179.40;1792.00;;;;;;5071673;28;20047;-72
2021/04/07 10:39:38;;;;;;;18.40;12.13;;;179.40;1792.00;;;;;;5071926;28;20048;-73
2021/04/07 10:42:07;;;;;;;16.13;10.02;;;179.50;1792.00;;;;;;5071818;28;20033;-73
2021/04/07 10:44:35;;;;;;;9.65;7.25;;;179.70;1715.20;;;;;;5068696;28;20024;-73
2021/04/07 10:47:01;;;;;;;10.88;7.30;;;179.60;1612.80;;;;;;5070896;28;20024;-75
2021/04/07 10:49:27;;;;;;;13.80;8.85;;;179.80;1587.20;;;;;;5079148;28;20746;-73
2021/04/07 10:52:28;;;;;;;12.90;9.10;;;180.00;1664.00;;;;;;5081122;28;20012;-74
2021/04/07 10:54:55;;;;;;;;;;;180.00;1612.80;;;;;;5080643;28;20075;-74
2021/04/07 10:57:36;;;;;;;20.33;9.95;;;179.90;1587.20;;;;;;5080870;28;19911;-75
2021/04/07 11:00:09;;;;;;;20.25;11.93;;;179.70;1561.60;;;;;;5081143;28;20020;-73
2021/04/07 11:02:45;;;;;;;13.55;9.02;;;179.80;1561.60;;;;;;5080427;28;20024;-74
2021/04/07 11:05:16;;;;;;;20.52;12.70;;;179.70;1536.00;;;;;;5080010;28;20463;-74
2021/04/07 11:07:42;;;;;;;7.78;6.88;;;179.90;1536.00;;;;;;5078093;28;20513;-73
2021/04/07 11:10:10;;;;;;;9.65;6.60;;;180.00;1433.60;;;;;;5080957;28;20064;-73
2021/04/07 11:12:36;;;;;;;12.65;8.70;;;204.90;1382.40;;;;;;5081149;28;20563;-73
2021/04/07 11:15:09;;;;;;;11.38;7.95;;;205.00;1331.20;;;;;;5078853;28;20039;-74
2021/04/07 11:17:36;;;;;;;14.13;8.68;;;205.00;1305.60;;;;;;5080425;28;20020;-73
2021/04/07 11:20:04;;;;;;;14.50;10.02;;;205.10;1408.00;;;;;;5081118;28;20055;-74
2021/04/07 11:22:29;;;;;;;18.38;12.60;;;205.00;1382.40;;;;;;5079253;28;20523;-75
2021/04/07 11:24:56;;;;;;;12.40;8.52;;;205.00;1356.80;;;;;;5080175;28;20099;-73
2021/04/07 11:27:22;;;;;;;17.05;9.73;;;204.80;1305.60;;;;;;5080937;28;20024;-74
2021/04/07 11:29:48;;;;;;;15.90;10.75;;;204.90;1305.60;;;;;;5079947;28;20028;-72
2021/04/07 11:32:15;;;;;;;16.98;9.43;;;205.00;1331.20;;;;;;5080434;28;20043;-73
2021/04/07 11:34:46;;;;;;;21.38;11.20;;;205.20;1280.00;;;;;;5081151;28;20440;-72
2021/04/07 11:37:21;;;;;;;25.65;14.45;;;205.50;1280.00;;;;;;5081526;28;20038;-71
2021/04/07 11:39:54;;;;;;;15.30;11.18;;;205.70;1305.60;;;;;;5081347;28;20493;-72
2021/04/07 11:44:45;;;;;;;10.00;8.23;;;205.70;1356.80;;;;;;5078850;28;20025;-73
2021/04/07 11:47:11;;;;;;;15.15;11.02;;;230.50;1382.40;;;;;;5080050;28;20020;-71
2021/04/07 11:49:37;;;;;;;16.13;11.13;;;230.40;1331.20;;;;;;5080296;28;20044;-71
2021/04/07 11:52:04;;;;;;;24.02;16.63;;;230.40;1356.80;;;;;;5079055;28;20035;-72
2021/04/07 11:54:30;;;;;;;16.27;11.98;;;230.40;1331.20;;;;;;5079884;28;20048;-72
2021/04/07 11:56:56;;;;;;;13.15;8.73;;;230.40;1331.20;;;;;;5080281;28;20048;-71
2021/04/07 11:59:24;;;;;;;11.10;8.95;;;205.70;1203.20;;;;;;5079019;28;20026;-72
2021/04/07 12:01:53;;;;;;;14.38;8.60;;;205.60;1203.20;;;;;;5079002;28;20157;-72
2021/04/07 12:04:20;;;;;;;8.18;6.68;;;230.50;1254.40;;;;;;5079344;28;20012;-72
2021/04/07 12:06:46;;;;;;;9.82;6.50;;;230.60;1126.40;;;;;;5081045;28;20086;-72
2021/04/07 12:09:12;;;;;;;9.57;5.50;;;230.70;1126.40;;;;;;5077897;28;20032;-71
2021/04/07 12:11:38;;;;;;;10.45;6.28;;;230.70;1100.80;;;;;;5079869;28;20032;-75
2021/04/07 12:14:05;;;;;;;13.85;7.00;;;230.60;1100.80;;;;;;5080516;28;20095;-73
2021/04/07 12:16:31;;;;;;;11.02;5.35;;;230.60;1100.80;;;;;;5078741;28;20098;-72
2021/04/07 12:18:57;;;;;;;6.65;5.07;;;230.60;1049.60;;;;;;5080285;28;20462;-71